Time;durP1;ratioP1;P1;durP2;ratioP2;P2;SDS_P1;SDS_P2;PMS_P1;PMS_P2;Temp;Humidity;BMP_temperature;BMP_pressure;BME280_temperature;BME280_humidity;BME280_pressure;Samples;Min_cycle;Max_cycle;Signal;HPM_P1;HPM_P2
2023/03/08 00:00:12;;;;;;;2.95;1.50;;;9.10;81.20;;;;;;4956138;28;20070;-82
2023/03/08 00:02:37;;;;;;;2.60;1.60;;;9.10;81.20;;;;;;4956129;28;20037;-82
2023/03/08 00:05:04;;;;;;;2.17;1.40;;;9.10;81.20;;;;;;4956122;28;20456;-82
2023/03/08 00:07:30;;;;;;;2.95;1.65;;;9.10;81.20;;;;;;4973122;28;20027;-82
2023/03/08 00:09:55;;;;;;;2.13;1.40;;;9.10;81.10;;;;;;4957398;28;20109;-81
2023/03/08 00:12:21;;;;;;;2.50;1.55;;;9.10;81.20;;;;;;4959436;28;20122;-82
2023/03/08 00:14:48;;;;;;;2.35;1.42;;;9.10;81.10;;;;;;4959295;28;20046;-80
2023/03/08 00:17:13;;;;;;;3.22;1.50;;;9.10;81.10;;;;;;4976915;28;20069;-82
2023/03/08 00:19:39;;;;;;;3.22;1.80;;;9.10;81.20;;;;;;4959615;28;20034;-83
2023/03/08 00:22:05;;;;;;;2.80;1.55;;;9.10;81.10;;;;;;4976649;28;20023;-82
2023/03/08 00:24:30;;;;;;;2.80;1.70;;;9.10;81.10;;;;;;4976325;28;20046;-82
2023/03/08 00:26:56;;;;;;;2.03;1.33;;;9.10;81.10;;;;;;4976793;28;20154;-83
2023/03/08 00:29:21;;;;;;;2.70;1.60;;;9.10;81.10;;;;;;4959183;28;20026;-83
2023/03/08 00:31:48;;;;;;;2.30;1.40;;;9.10;81.10;;;;;;4959164;28;20390;-82
2023/03/08 00:34:14;;;;;;;2.97;1.63;;;9.10;81.10;;;;;;4958722;28;20465;-83
2023/03/08 00:36:40;;;;;;;2.83;1.70;;;9.10;81.20;;;;;;4958854;28;20433;-82
2023/03/08 00:39:05;;;;;;;4.00;1.80;;;9.10;81.10;;;;;;4987783;28;20034;-83
2023/03/08 00:41:32;;;;;;;2.92;1.60;;;9.10;81.20;;;;;;4995461;28;20061;-82
2023/03/08 00:43:57;;;;;;;2.70;1.60;;;9.10;81.10;;;;;;4977619;28;20030;-81
2023/03/08 00:46:24;;;;;;;2.83;1.70;;;9.10;81.20;;;;;;4995254;28;20548;-82
2023/03/08 00:48:50;;;;;;;2.67;1.60;;;9.10;81.10;;;;;;4977688;28;20026;-82
2023/03/08 00:51:18;;;;;;;3.40;1.58;;;9.10;81.20;;;;;;4994374;28;20045;-82
2023/03/08 00:53:44;;;;;;;2.33;1.52;;;9.10;81.20;;;;;;5057527;23;20129;-84
2023/03/08 00:56:10;;;;;;;2.42;1.70;;;9.10;81.10;;;;;;4980603;28;20066;-84
2023/03/08 00:58:37;;;;;;;2.70;1.63;;;9.10;81.10;;;;;;4998573;28;20078;-84
2023/03/08 01:01:03;;;;;;;3.70;1.73;;;9.10;81.10;;;;;;4998018;28;20487;-84
2023/03/08 01:03:29;;;;;;;2.80;1.70;;;9.10;81.20;;;;;;4979681;28;20058;-83
2023/03/08 01:05:56;;;;;;;3.10;1.77;;;9.10;81.10;;;;;;4999157;28;20022;-85
2023/03/08 01:08:23;;;;;;;2.85;1.73;;;9.10;81.10;;;;;;4997357;28;20627;-84
2023/03/08 01:10:57;;;;;;;2.88;1.80;;;9.10;81.10;;;;;;4997624;28;20101;-84
2023/03/08 01:13:28;;;;;;;3.25;1.70;;;9.10;81.10;;;;;;4995712;28;20029;-85
2023/03/08 01:15:54;;;;;;;3.95;1.95;;;9.10;81.10;;;;;;4996595;28;20489;-84
2023/03/08 01:18:19;;;;;;;3.70;1.85;;;9.10;81.00;;;;;;4996771;28;20042;-84
2023/03/08 01:20:57;;;;;;;3.20;1.80;;;9.10;81.10;;;;;;4980223;28;20412;-84
2023/03/08 01:23:23;;;;;;;3.17;1.60;;;9.10;81.00;;;;;;4995507;28;20049;-84
2023/03/08 01:25:48;;;;;;;2.70;1.70;;;9.00;81.10;;;;;;4978520;28;20030;-83
2023/03/08 01:28:13;;;;;;;3.08;1.80;;;9.10;81.10;;;;;;4978890;28;20489;-84
2023/03/08 01:30:39;;;;;;;3.45;1.90;;;9.10;81.10;;;;;;4978503;28;20030;-84
2023/03/08 01:33:04;;;;;;;3.38;1.85;;;9.10;81.10;;;;;;4995790;28;20412;-84
2023/03/08 01:35:30;;;;;;;3.40;1.90;;;9.10;81.10;;;;;;4978923;28;20106;-85
2023/03/08 01:37:55;;;;;;;3.83;1.88;;;9.10;81.10;;;;;;4997293;28;20492;-84
2023/03/08 01:40:21;;;;;;;3.25;1.92;;;9.00;81.10;;;;;;4977974;28;20030;-83
2023/03/08 01:42:47;;;;;;;3.45;1.80;;;9.10;81.10;;;;;;4995695;28;20461;-84
2023/03/08 01:45:50;;;;;;;3.08;1.70;;;9.10;81.10;;;;;;4995470;28;20125;-84
2023/03/08 01:48:16;;;;;;;3.83;2.05;;;9.10;81.00;;;;;;4995392;28;20062;-83
2023/03/08 01:50:44;;;;;;;3.03;1.67;;;9.00;81.00;;;;;;4995773;28;20034;-84
2023/03/08 01:53:10;;;;;;;3.53;1.92;;;9.10;81.10;;;;;;4996681;28;20516;-83
2023/03/08 01:55:35;;;;;;;3.17;1.60;;;9.10;81.10;;;;;;4978890;28;20037;-85
2023/03/08 01:58:01;;;;;;;3.80;2.00;;;9.00;81.00;;;;;;4995281;28;20393;-84
2023/03/08 02:00:26;;;;;;;3.15;1.67;;;9.10;81.20;;;;;;4977324;28;20042;-84
2023/03/08 02:03:03;;;;;;;3.25;1.90;;;9.00;81.10;;;;;;4994499;28;20473;-84
2023/03/08 02:05:29;;;;;;;2.42;1.65;;;9.00;81.10;;;;;;4977466;28;20039;-83
2023/03/08 02:07:55;;;;;;;2.67;1.70;;;9.10;81.10;;;;;;4995279;28;20026;-83
2023/03/08 02:10:21;;;;;;;2.80;1.70;;;9.10;81.10;;;;;;4994791;28;20022;-83
2023/03/08 02:12:47;;;;;;;3.13;2.08;;;9.10;81.10;;;;;;4977171;28;20030;-84
2023/03/08 02:15:16;;;;;;;3.47;1.80;;;9.10;81.10;;;;;;4976731;28;20029;-83
2023/03/08 02:17:42;;;;;;;4.63;2.00;;;9.10;81.20;;;;;;4999338;28;20026;-84
2023/03/08 02:20:38;;;;;;;3.80;2.00;;;9.10;81.20;;;;;;4981273;28;20034;-84
2023/03/08 02:23:14;;;;;;;3.10;1.77;;;9.10;81.20;;;;;;4963825;28;20061;-84
2023/03/08 02:25:40;;;;;;;4.32;2.05;;;9.10;81.20;;;;;;4985171;28;20113;-84
2023/03/08 02:28:07;;;;;;;3.08;1.90;;;9.10;81.20;;;;;;5001640;28;20583;-84
2023/03/08 02:30:36;;;;;;;2.95;1.80;;;9.00;81.10;;;;;;5002686;28;20113;-84
2023/03/08 02:33:02;;;;;;;2.85;1.67;;;9.10;81.10;;;;;;4983113;28;20023;-84
2023/03/08 02:35:28;;;;;;;3.30;1.90;;;9.00;81.10;;;;;;4982660;28;20034;-84
2023/03/08 02:37:54;;;;;;;2.60;1.70;;;9.00;81.70;;;;;;5000899;28;20030;-84
2023/03/08 02:40:20;;;;;;;3.20;1.80;;;9.10;81.20;;;;;;4982946;28;20036;-85
2023/03/08 02:42:45;;;;;;;2.92;1.80;;;9.00;81.10;;;;;;4983609;28;20029;-85
2023/03/08 02:45:11;;;;;;;3.90;1.90;;;9.10;81.20;;;;;;4981509;28;20036;-83
2023/03/08 02:47:36;;;;;;;3.50;1.95;;;9.00;81.20;;;;;;5000472;28;20054;-85
2023/03/08 02:50:02;;;;;;;2.75;1.80;;;9.00;81.10;;;;;;4981492;28;20019;-84
2023/03/08 02:52:28;;;;;;;3.00;1.83;;;9.00;81.10;;;;;;4998799;28;20569;-84
2023/03/08 02:54:53;;;;;;;3.45;1.83;;;9.10;81.20;;;;;;4980782;28;20054;-84
2023/03/08 02:57:20;;;;;;;3.92;1.92;;;9.00;81.10;;;;;;4980608;28;20428;-85
2023/03/08 02:59:45;;;;;;;3.40;1.73;;;9.10;81.20;;;;;;4981014;28;20026;-84
2023/03/08 03:02:10;;;;;;;3.10;1.98;;;9.00;81.20;;;;;;4980542;28;20042;-84
2023/03/08 03:04:36;;;;;;;3.83;2.00;;;9.10;81.20;;;;;;4979697;28;20485;-84
2023/03/08 03:07:02;;;;;;;3.38;2.00;;;9.00;81.10;;;;;;4997636;28;20034;-82
2023/03/08 03:09:28;;;;;;;3.53;1.90;;;9.00;81.20;;;;;;4981025;28;20022;-86
2023/03/08 03:11:54;;;;;;;3.60;1.95;;;9.00;81.10;;;;;;4979544;28;20069;-84
2023/03/08 03:14:19;;;;;;;3.92;1.98;;;9.00;81.10;;;;;;4996106;28;20370;-83
2023/03/08 03:16:45;;;;;;;4.25;2.10;;;9.00;81.60;;;;;;4984467;28;20030;-85
2023/03/08 03:19:11;;;;;;;3.92;2.00;;;9.00;81.10;;;;;;5000473;28;20089;-85
2023/03/08 03:21:40;;;;;;;3.53;2.00;;;9.10;81.20;;;;;;5001351;28;20064;-85
2023/03/08 03:24:06;;;;;;;3.65;2.10;;;9.00;81.10;;;;;;4997363;28;20018;-84
2023/03/08 03:26:32;;;;;;;3.28;2.08;;;9.00;81.10;;;;;;4979836;28;20023;-84
2023/03/08 03:28:58;;;;;;;3.53;2.10;;;9.00;81.10;;;;;;4963693;28;20048;-85
2023/03/08 03:31:25;;;;;;;3.50;1.88;;;9.10;81.20;;;;;;4963234;28;20033;-84
2023/03/08 03:33:51;;;;;;;2.95;1.90;;;9.00;81.10;;;;;;4963212;28;20027;-86
2023/03/08 03:36:19;;;;;;;4.07;2.08;;;9.00;81.10;;;;;;4980021;28;20078;-85
2023/03/08 03:38:45;;;;;;;3.40;1.92;;;9.00;81.20;;;;;;4962806;28;20500;-85
2023/03/08 03:41:13;;;;;;;2.92;1.85;;;9.00;81.10;;;;;;4975211;28;20500;-84
2023/03/08 03:43:39;;;;;;;4.13;2.10;;;9.00;81.10;;;;;;4961283;28;20027;-85
2023/03/08 03:46:09;;;;;;;3.65;1.95;;;9.00;81.10;;;;;;4982271;28;20026;-85
2023/03/08 03:48:35;;;;;;;3.60;2.10;;;9.00;81.20;;;;;;4960928;28;20086;-86
2023/03/08 03:51:08;;;;;;;3.50;2.03;;;9.00;81.10;;;;;;4964966;28;20033;-84
2023/03/08 03:53:34;;;;;;;3.70;1.80;;;9.00;81.30;;;;;;4980999;28;20053;-85
2023/03/08 03:56:09;;;;;;;3.72;2.20;;;9.00;81.10;;;;;;4960349;28;20041;-85
2023/03/08 03:58:34;;;;;;;3.97;2.20;;;9.00;81.10;;;;;;4960269;28;20034;-85
2023/03/08 04:01:00;;;;;;;4.20;2.25;;;9.00;81.10;;;;;;4962633;28;20027;-84
2023/03/08 04:03:26;;;;;;;3.20;1.95;;;9.00;81.10;;;;;;4963202;28;20035;-84
2023/03/08 04:05:52;;;;;;;4.25;2.25;;;9.00;81.10;;;;;;4962939;28;20038;-84
2023/03/08 04:08:18;;;;;;;4.53;2.38;;;9.00;81.10;;;;;;4960979;28;20062;-84
2023/03/08 04:10:43;;;;;;;3.90;2.10;;;9.00;81.20;;;;;;4962116;28;20033;-85
2023/03/08 04:13:14;;;;;;;3.92;2.33;;;9.00;81.10;;;;;;4962843;28;20051;-84
2023/03/08 04:15:39;;;;;;;4.07;2.20;;;9.00;81.10;;;;;;4962958;28;20034;-83
2023/03/08 04:18:04;;;;;;;4.35;2.35;;;9.00;81.00;;;;;;4962242;28;20030;-84
2023/03/08 04:20:30;;;;;;;5.10;2.50;;;9.00;81.00;;;;;;4962296;28;20078;-85
2023/03/08 04:22:55;;;;;;;4.15;2.42;;;9.00;81.00;;;;;;4962115;28;20062;-84
2023/03/08 04:25:21;;;;;;;4.05;2.20;;;9.00;81.10;;;;;;4977741;28;20367;-82
2023/03/08 04:27:46;;;;;;;4.20;2.20;;;9.00;81.10;;;;;;4958949;28;20034;-81
2023/03/08 04:30:12;;;;;;;4.68;2.60;;;9.00;81.00;;;;;;4959172;28;20027;-80
2023/03/08 04:32:38;;;;;;;4.82;2.35;;;9.00;81.10;;;;;;4958563;28;20023;-81
2023/03/08 04:35:04;;;;;;;4.43;2.33;;;9.00;81.10;;;;;;4978461;28;20034;-81
2023/03/08 04:37:30;;;;;;;4.28;2.53;;;9.00;81.00;;;;;;4979490;28;20057;-84
2023/03/08 04:39:55;;;;;;;4.10;2.33;;;9.00;81.10;;;;;;4992927;28;20516;-81
2023/03/08 04:42:21;;;;;;;4.97;2.80;;;9.00;81.00;;;;;;4994552;28;20034;-82
2023/03/08 04:44:47;;;;;;;4.40;2.45;;;9.00;81.00;;;;;;4999490;28;20052;-82
2023/03/08 04:47:12;;;;;;;3.85;2.20;;;9.00;81.00;;;;;;4998223;28;20370;-80
2023/03/08 04:49:38;;;;;;;3.45;2.10;;;9.00;81.00;;;;;;4980497;28;20499;-81
2023/03/08 04:52:03;;;;;;;4.43;2.50;;;9.00;81.00;;;;;;4997753;28;20026;-80
2023/03/08 04:54:29;;;;;;;4.68;2.58;;;9.00;81.00;;;;;;4980649;28;20026;-82
2023/03/08 04:56:54;;;;;;;4.65;2.40;;;9.00;81.00;;;;;;4995878;28;20436;-82
2023/03/08 04:59:20;;;;;;;4.85;2.50;;;9.00;81.00;;;;;;4999374;28;20357;-82
2023/03/08 05:01:46;;;;;;;4.50;2.45;;;9.00;81.00;;;;;;4998510;28;20489;-85
2023/03/08 05:04:11;;;;;;;4.40;2.60;;;9.00;81.00;;;;;;4982912;28;20049;-82
2023/03/08 05:06:37;;;;;;;4.78;2.72;;;9.00;81.00;;;;;;4998265;28;20046;-81
2023/03/08 05:09:02;;;;;;;4.35;2.63;;;9.00;81.00;;;;;;4996176;28;20078;-83
2023/03/08 05:11:28;;;;;;;4.40;2.50;;;9.00;81.00;;;;;;4975506;28;20328;-79
2023/03/08 05:13:55;;;;;;;4.68;2.60;;;9.00;81.20;;;;;;4993110;28;20027;-78
2023/03/08 05:16:21;;;;;;;5.50;3.25;;;9.00;81.00;;;;;;4994140;28;20026;-80
2023/03/08 05:18:47;;;;;;;5.10;3.00;;;9.00;80.90;;;;;;4994463;28;20022;-80
2023/03/08 05:21:15;;;;;;;5.03;2.55;;;9.00;80.90;;;;;;4994671;28;20034;-81
2023/03/08 05:23:41;;;;;;;5.35;2.90;;;9.00;80.90;;;;;;4975456;28;20061;-79
2023/03/08 05:26:09;;;;;;;5.50;2.95;;;9.00;81.00;;;;;;4976901;28;20026;-81
2023/03/08 05:28:40;;;;;;;4.78;2.70;;;9.00;80.90;;;;;;4965511;28;20042;-82
2023/03/08 05:31:15;;;;;;;5.30;2.90;;;9.00;81.30;;;;;;4959099;28;20037;-80
2023/03/08 05:33:42;;;;;;;4.78;2.85;;;9.00;80.90;;;;;;4976257;28;20030;-80
2023/03/08 05:36:10;;;;;;;5.15;3.08;;;9.00;80.80;;;;;;4957872;28;20114;-81
2023/03/08 05:38:35;;;;;;;4.88;2.88;;;9.00;80.80;;;;;;4961024;28;20030;-81
2023/03/08 05:41:07;;;;;;;4.88;3.00;;;8.90;80.70;;;;;;4994725;28;20037;-80
2023/03/08 05:43:33;;;;;;;5.93;3.22;;;9.00;81.40;;;;;;4976362;28;20448;-80
2023/03/08 05:46:04;;;;;;;5.65;3.08;;;9.00;80.80;;;;;;4976472;28;20034;-81
2023/03/08 05:48:32;;;;;;;6.57;3.53;;;9.00;80.80;;;;;;4994365;28;20057;-81
2023/03/08 05:50:58;;;;;;;6.70;3.40;;;8.90;80.70;;;;;;4976292;28;20029;-80
2023/03/08 05:53:23;;;;;;;5.78;3.28;;;9.00;80.80;;;;;;4975535;28;20042;-79
2023/03/08 05:55:49;;;;;;;5.32;3.20;;;9.00;80.80;;;;;;4978451;28;20115;-80
2023/03/08 05:58:15;;;;;;;6.22;3.70;;;8.90;80.80;;;;;;4995979;28;20034;-80
2023/03/08 06:00:40;;;;;;;7.50;3.55;;;9.00;80.80;;;;;;4978146;28;20031;-84
2023/03/08 06:03:06;;;;;;;6.05;3.70;;;9.00;80.80;;;;;;4995312;28;20030;-82
2023/03/08 06:05:32;;;;;;;6.00;3.35;;;9.00;80.80;;;;;;4978015;28;20031;-81
2023/03/08 06:07:58;;;;;;;6.32;4.05;;;9.00;80.80;;;;;;4977421;28;20030;-83
2023/03/08 06:10:23;;;;;;;5.97;3.58;;;9.00;80.80;;;;;;4977741;28;20080;-81
2023/03/08 06:12:49;;;;;;;7.03;3.58;;;9.00;80.80;;;;;;4978740;28;20031;-81
2023/03/08 06:15:15;;;;;;;6.57;3.80;;;9.00;81.00;;;;;;4978036;28;20026;-80
2023/03/08 06:17:40;;;;;;;5.70;3.50;;;8.90;80.80;;;;;;4977981;28;20081;-83
2023/03/08 06:20:07;;;;;;;6.45;3.80;;;9.00;80.80;;;;;;4995460;28;20034;-81
2023/03/08 06:22:33;;;;;;;6.70;4.25;;;9.00;80.90;;;;;;4994620;28;20034;-83
2023/03/08 06:24:58;;;;;;;6.45;3.95;;;9.00;80.80;;;;;;4994921;28;20113;-83
2023/03/08 06:27:24;;;;;;;5.95;3.72;;;9.00;80.80;;;;;;4976394;28;20030;-82
2023/03/08 06:29:49;;;;;;;6.60;4.18;;;9.00;80.70;;;;;;4976414;28;20034;-81
2023/03/08 06:32:16;;;;;;;6.53;4.03;;;8.90;80.70;;;;;;4976607;28;20033;-80
2023/03/08 06:34:42;;;;;;;6.93;4.22;;;8.90;80.70;;;;;;4976507;28;20022;-81
2023/03/08 06:37:07;;;;;;;6.80;4.30;;;9.00;80.80;;;;;;4975857;28;20069;-81
2023/03/08 06:39:33;;;;;;;9.80;4.35;;;8.90;80.70;;;;;;4993393;28;20037;-82
2023/03/08 06:42:02;;;;;;;14.27;5.85;;;8.90;80.80;;;;;;4977986;28;20018;-86
2023/03/08 06:44:28;;;;;;;8.93;5.82;;;8.80;81.60;;;;;;4980639;28;20449;-85
2023/03/08 06:46:54;;;;;;;9.45;6.35;;;8.70;81.60;;;;;;5000504;28;20026;-82
2023/03/08 06:49:19;;;;;;;9.38;6.32;;;8.80;81.20;;;;;;4992796;28;20118;-85
2023/03/08 06:51:45;;;;;;;8.65;5.82;;;8.80;80.90;;;;;;4998219;28;20014;-85
2023/03/08 06:54:16;;;;;;;8.77;5.80;;;8.90;80.80;;;;;;4980221;28;20564;-85
2023/03/08 06:56:44;;;;;;;9.25;5.50;;;8.90;80.80;;;;;;4980726;28;20575;-86
2023/03/08 06:59:11;;;;;;;9.07;5.70;;;8.90;80.60;;;;;;4979773;28;20034;-85
2023/03/08 07:01:37;;;;;;;8.52;5.72;;;8.90;80.80;;;;;;4991590;28;20026;-86
2023/03/08 07:04:02;;;;;;;9.82;5.88;;;8.90;80.60;;;;;;4978214;28;20030;-85
2023/03/08 07:06:28;;;;;;;10.13;5.95;;;8.90;80.60;;;;;;4998312;28;20029;-85
2023/03/08 07:08:53;;;;;;;9.02;6.32;;;8.90;80.70;;;;;;4997621;28;20473;-85
2023/03/08 07:11:19;;;;;;;8.52;5.70;;;8.90;80.60;;;;;;4978133;28;20027;-86
2023/03/08 07:13:44;;;;;;;8.63;5.32;;;8.90;80.60;;;;;;4994831;28;20136;-85
2023/03/08 07:16:12;;;;;;;8.95;5.60;;;9.00;80.70;;;;;;4980992;28;20034;-85
2023/03/08 07:18:37;;;;;;;9.30;5.72;;;8.90;80.60;;;;;;4992938;28;20042;-85
2023/03/08 07:21:03;;;;;;;8.25;5.75;;;8.90;80.60;;;;;;4979448;28;20030;-85
2023/03/08 07:23:29;;;;;;;9.00;6.07;;;8.90;80.60;;;;;;4979684;28;20034;-85
2023/03/08 07:25:54;;;;;;;8.20;5.30;;;8.90;80.50;;;;;;4983241;28;20082;-85
2023/03/08 07:28:20;;;;;;;9.35;6.32;;;9.00;80.60;;;;;;4982943;28;20019;-85
2023/03/08 07:30:50;;;;;;;8.90;6.13;;;8.90;80.50;;;;;;4982290;28;20022;-85
2023/03/08 07:33:17;;;;;;;8.90;6.20;;;8.90;80.50;;;;;;5000507;28;20412;-86
2023/03/08 07:35:43;;;;;;;9.50;6.18;;;8.90;80.60;;;;;;4999946;28;20158;-85
2023/03/08 07:38:11;;;;;;;9.32;6.22;;;8.90;80.50;;;;;;4982012;28;20517;-85
2023/03/08 07:40:36;;;;;;;8.75;6.30;;;8.90;80.60;;;;;;4982022;28;20034;-85
2023/03/08 07:43:02;;;;;;;9.32;6.38;;;9.00;80.60;;;;;;4981344;28;20036;-85
2023/03/08 07:45:27;;;;;;;9.77;6.90;;;9.00;80.80;;;;;;4981864;28;20026;-85
2023/03/08 07:47:53;;;;;;;9.07;6.43;;;9.00;80.60;;;;;;4981987;28;20037;-85
2023/03/08 07:50:20;;;;;;;9.93;6.60;;;9.00;80.60;;;;;;4981423;28;20070;-85
2023/03/08 07:52:45;;;;;;;10.55;6.95;;;9.00;80.70;;;;;;4979563;28;20035;-85
2023/03/08 07:55:11;;;;;;;9.80;6.97;;;9.00;80.60;;;;;;4998221;28;20485;-86
2023/03/08 07:57:37;;;;;;;10.13;7.28;;;8.90;80.50;;;;;;4978465;28;20109;-86
2023/03/08 08:00:07;;;;;;;11.10;7.45;;;9.00;80.60;;;;;;4983482;28;20030;-86
2023/03/08 08:02:33;;;;;;;9.82;6.90;;;9.00;80.60;;;;;;4983204;28;20489;-86
2023/03/08 08:04:59;;;;;;;9.65;6.55;;;9.00;80.50;;;;;;4982172;28;20408;-86
2023/03/08 08:07:25;;;;;;;9.82;7.03;;;9.00;80.50;;;;;;4998782;28;20023;-85
2023/03/08 08:09:50;;;;;;;10.10;6.93;;;8.90;80.40;;;;;;4999329;28;20026;-85
2023/03/08 08:12:16;;;;;;;10.57;7.30;;;9.00;80.50;;;;;;4982260;28;20100;-86
2023/03/08 08:14:41;;;;;;;10.30;7.15;;;9.00;80.50;;;;;;4997895;28;20026;-85
2023/03/08 08:17:07;;;;;;;10.23;7.50;;;9.00;80.50;;;;;;4980680;28;20022;-86
2023/03/08 08:19:32;;;;;;;10.00;6.90;;;9.00;80.50;;;;;;4980828;28;20030;-86
2023/03/08 08:21:59;;;;;;;10.27;7.18;;;9.00;80.50;;;;;;4998190;28;20045;-86
2023/03/08 08:24:25;;;;;;;11.45;7.45;;;9.00;80.40;;;;;;4982198;28;20037;-86
2023/03/08 08:26:50;;;;;;;10.57;7.25;;;9.00;80.50;;;;;;4982385;28;20033;-86
2023/03/08 08:29:16;;;;;;;10.77;7.30;;;9.00;80.50;;;;;;4982005;28;20019;-86
2023/03/08 08:31:41;;;;;;;11.15;7.70;;;9.00;80.60;;;;;;4999194;28;20029;-86
2023/03/08 08:34:07;;;;;;;11.77;7.72;;;9.00;80.50;;;;;;4980618;28;20027;-86
2023/03/08 08:36:33;;;;;;;10.50;7.30;;;9.00;80.50;;;;;;4998367;28;20027;-86
2023/03/08 08:38:58;;;;;;;11.27;7.75;;;9.00;80.50;;;;;;4980432;28;20018;-86
2023/03/08 08:41:24;;;;;;;10.48;7.22;;;9.00;80.50;;;;;;4979322;28;20046;-86
2023/03/08 08:43:50;;;;;;;11.27;8.02;;;9.00;80.60;;;;;;4998858;28;20025;-85
2023/03/08 08:46:16;;;;;;;11.63;8.00;;;9.00;80.50;;;;;;4980488;28;20027;-86
2023/03/08 08:48:42;;;;;;;11.52;8.20;;;9.00;80.50;;;;;;4978874;28;20081;-86
2023/03/08 08:51:11;;;;;;;11.20;7.65;;;9.00;80.50;;;;;;4996389;28;20027;-86
2023/03/08 08:53:37;;;;;;;11.38;8.07;;;8.90;80.40;;;;;;4978477;28;20030;-86
2023/03/08 08:56:16;;;;;;;11.45;7.93;;;9.00;80.50;;;;;;4995884;28;20097;-86
2023/03/08 08:58:43;;;;;;;11.45;7.90;;;9.00;80.40;;;;;;4978854;28;20048;-86
2023/03/08 09:01:16;;;;;;;11.60;8.18;;;9.00;80.50;;;;;;4979000;28;20082;-85
2023/03/08 09:03:42;;;;;;;11.68;8.38;;;9.00;80.50;;;;;;4978972;28;20032;-86
2023/03/08 09:06:08;;;;;;;11.95;8.10;;;9.00;80.50;;;;;;4977897;28;20026;-86
2023/03/08 09:08:33;;;;;;;11.88;8.23;;;9.00;80.50;;;;;;4996374;28;20577;-86
2023/03/08 09:11:08;;;;;;;11.90;8.35;;;9.00;80.50;;;;;;4979277;28;20026;-86
2023/03/08 09:13:37;;;;;;;12.77;8.93;;;9.00;80.60;;;;;;4978576;28;20028;-86
2023/03/08 09:16:02;;;;;;;12.35;8.10;;;9.00;80.50;;;;;;4978318;28;20022;-86
2023/03/08 09:18:28;;;;;;;12.35;8.55;;;9.00;80.50;;;;;;4978080;28;20489;-86
2023/03/08 09:20:53;;;;;;;12.65;8.80;;;9.00;80.50;;;;;;4996233;28;20026;-86
2023/03/08 09:23:19;;;;;;;12.57;8.95;;;9.00;80.50;;;;;;4985655;28;20034;-87
2023/03/08 09:25:53;;;;;;;13.05;9.10;;;9.00;80.50;;;;;;5004291;28;20219;-87
2023/03/08 09:28:18;;;;;;;13.20;9.23;;;9.00;80.40;;;;;;5003331;28;20034;-86
2023/03/08 09:30:43;;;;;;;12.93;8.77;;;9.00;80.40;;;;;;5002815;28;20033;-86
2023/03/08 09:33:09;;;;;;;12.43;8.55;;;9.00;80.40;;;;;;5004254;28;20058;-86
2023/03/08 09:35:34;;;;;;;13.70;9.15;;;9.00;80.40;;;;;;4986323;28;20049;-86
2023/03/08 09:38:00;;;;;;;13.77;9.23;;;9.00;80.40;;;;;;4985492;28;20038;-86
2023/03/08 09:40:28;;;;;;;12.50;8.65;;;9.00;80.40;;;;;;4978019;28;20030;-86
2023/03/08 09:43:02;;;;;;;14.02;9.60;;;9.00;80.40;;;;;;4981401;28;20489;-86
2023/03/08 09:45:28;;;;;;;13.32;8.98;;;9.00;80.40;;;;;;5003648;28;20022;-86
2023/03/08 09:48:09;;;;;;;12.93;8.73;;;9.00;80.40;;;;;;4984295;28;20097;-86
2023/03/08 09:50:46;;;;;;;;;;;9.10;80.50;;;;;;4985100;28;20389;-86
2023/03/08 09:53:25;;;;;;;14.05;9.15;;;9.00;80.40;;;;;;4983888;28;19918;-86
2023/03/08 09:55:55;;;;;;;13.63;8.73;;;9.00;80.40;;;;;;5001017;28;20030;-86
2023/03/08 09:58:27;;;;;;;13.18;8.98;;;9.00;80.30;;;;;;4977904;28;20026;-86
2023/03/08 10:00:56;;;;;;;12.32;8.95;;;9.00;80.30;;;;;;4977761;28;20030;-86
2023/03/08 10:03:49;;;;;;;13.30;8.75;;;9.10;80.40;;;;;;4995562;28;20113;-86
2023/03/08 10:06:31;;;;;;;13.45;8.93;;;9.00;80.40;;;;;;4995364;28;20448;-86
2023/03/08 10:09:21;;;;;;;13.73;8.82;;;9.10;80.40;;;;;;4980601;28;20036;-86
2023/03/08 10:11:53;;;;;;;13.57;9.57;;;9.00;80.30;;;;;;4980374;28;20077;-86
2023/03/08 10:14:25;;;;;;;13.85;9.38;;;9.10;80.30;;;;;;5000900;28;20057;-86
2023/03/08 10:16:54;;;;;;;13.77;9.05;;;9.10;80.30;;;;;;5002098;28;20030;-86
2023/03/08 10:19:34;;;;;;;12.77;9.00;;;9.10;80.30;;;;;;4984984;28;20081;-86
2023/03/08 10:22:07;;;;;;;12.95;9.38;;;9.10;80.30;;;;;;5002262;28;20041;-86
2023/03/08 10:24:42;;;;;;;14.20;9.20;;;9.10;80.20;;;;;;5001699;28;20029;-86
2023/03/08 10:27:21;;;;;;;12.63;8.68;;;9.10;80.20;;;;;;4984744;28;20036;-86
2023/03/08 10:29:55;;;;;;;13.05;8.77;;;9.10;80.20;;;;;;4983730;28;20403;-86
2023/03/08 10:32:21;;;;;;;12.38;9.00;;;9.10;80.20;;;;;;4983860;28;20046;-86
2023/03/08 10:34:47;;;;;;;13.02;9.25;;;9.10;80.20;;;;;;4983731;28;20030;-85
2023/03/08 10:37:14;;;;;;;12.90;9.07;;;9.10;80.20;;;;;;4983257;28;20030;-86
2023/03/08 10:39:51;;;;;;;12.48;8.63;;;9.10;80.20;;;;;;4982716;28;20037;-86
2023/03/08 10:42:18;;;;;;;13.65;9.57;;;9.10;80.30;;;;;;4982662;28;20030;-86
2023/03/08 10:44:52;;;;;;;13.30;8.85;;;9.10;80.30;;;;;;4981802;28;20037;-86
2023/03/08 10:47:19;;;;;;;12.45;9.02;;;9.10;80.30;;;;;;5000021;28;20038;-86
2023/03/08 10:49:46;;;;;;;12.10;8.60;;;9.00;80.20;;;;;;4982398;28;20029;-86
2023/03/08 10:52:26;;;;;;;12.38;8.35;;;9.00;80.20;;;;;;4981420;28;20052;-86
2023/03/08 10:55:26;;;;;;;12.27;8.55;;;9.10;80.30;;;;;;4980236;28;20117;-86
2023/03/08 10:57:57;;;;;;;13.02;9.38;;;9.10;80.30;;;;;;4996040;28;20042;-85
2023/03/08 11:00:23;;;;;;;12.75;8.77;;;9.10;80.30;;;;;;4976336;28;20030;-86
2023/03/08 11:02:49;;;;;;;13.15;9.18;;;9.10;80.30;;;;;;4979276;28;20026;-86
2023/03/08 11:05:19;;;;;;;11.95;8.38;;;9.10;80.30;;;;;;4997777;28;20085;-86
2023/03/08 11:07:57;;;;;;;12.75;8.95;;;9.10;80.20;;;;;;4981569;28;20050;-86
2023/03/08 11:10:25;;;;;;;11.40;7.90;;;9.10;80.20;;;;;;4998189;28;20022;-86
2023/03/08 11:13:22;;;;;;;11.43;8.18;;;9.10;80.20;;;;;;4978083;28;20030;-86
2023/03/08 11:16:03;;;;;;;12.10;8.65;;;9.10;80.20;;;;;;4968796;28;20383;-86
2023/03/08 11:19:01;;;;;;;12.00;8.38;;;9.10;80.10;;;;;;4977057;28;20038;-86
2023/03/08 11:21:55;;;;;;;12.05;8.27;;;9.20;80.10;;;;;;4977203;28;20027;-86
2023/03/08 11:24:34;;;;;;;11.70;8.15;;;9.20;80.10;;;;;;4994460;28;20045;-86
2023/03/08 11:27:24;;;;;;;11.90;8.13;;;9.20;80.00;;;;;;4994211;28;20039;-86
2023/03/08 11:30:08;;;;;;;12.07;8.18;;;9.20;79.90;;;;;;4978230;28;20046;-86
2023/03/08 11:32:48;;;;;;;11.63;8.00;;;9.20;79.80;;;;;;4978507;28;20022;-86
2023/03/08 11:35:46;;;;;;;11.45;7.75;;;9.30;79.80;;;;;;4979358;28;20109;-86
2023/03/08 11:38:20;;;;;;;11.27;7.88;;;9.30;79.70;;;;;;4993282;28;20050;-86
2023/03/08 11:40:50;;;;;;;12.80;8.43;;;9.40;79.50;;;;;;4979759;28;20113;-86
2023/03/08 11:43:34;;;;;;;10.45;6.82;;;9.40;79.40;;;;;;4979314;28;20026;-86
2023/03/08 11:46:23;;;;;;;11.43;7.60;;;9.40;79.30;;;;;;4979171;28;20026;-85
2023/03/08 11:49:09;;;;;;;10.55;7.20;;;9.40;79.20;;;;;;4996548;28;20026;-87
2023/03/08 11:51:51;;;;;;;11.93;7.90;;;9.40;79.20;;;;;;4979008;28;20027;-86
2023/03/08 11:54:54;;;;;;;10.90;7.53;;;9.40;79.30;;;;;;4996070;28;20057;-86
2023/03/08 11:57:24;;;;;;;12.23;8.05;;;9.40;79.40;;;;;;4978092;28;20037;-86
2023/03/08 11:59:59;;;;;;;10.63;7.30;;;9.40;79.50;;;;;;4978322;28;20050;-85
2023/03/08 12:02:36;;;;;;;11.20;7.70;;;9.30;79.50;;;;;;4977985;28;20109;-86
2023/03/08 12:05:08;;;;;;;11.85;8.10;;;9.30;79.60;;;;;;4977539;28;20023;-86
2023/03/08 12:07:39;;;;;;;10.68;7.22;;;9.30;79.60;;;;;;4997924;28;20061;-86
2023/03/08 12:10:22;;;;;;;11.45;6.97;;;9.30;79.70;;;;;;4980311;28;20394;-86
2023/03/08 12:13:10;;;;;;;11.63;7.95;;;9.30;79.70;;;;;;4980095;28;20022;-86
2023/03/08 12:15:47;;;;;;;9.90;6.63;;;9.30;79.80;;;;;;4998306;28;20086;-86
2023/03/08 12:18:13;;;;;;;11.52;8.02;;;9.30;79.80;;;;;;4980753;28;20034;-86
2023/03/08 12:20:41;;;;;;;9.88;6.45;;;9.30;79.80;;;;;;4980769;28;20077;-85
2023/03/08 12:23:29;;;;;;;12.07;7.63;;;9.30;79.90;;;;;;4980083;28;20035;-86
2023/03/08 12:26:16;;;;;;;10.57;7.22;;;9.20;79.80;;;;;;4998468;28;20022;-86
2023/03/08 12:28:51;;;;;;;11.20;7.70;;;9.20;79.90;;;;;;4980557;28;20401;-86
2023/03/08 12:31:25;;;;;;;10.18;7.05;;;9.20;79.90;;;;;;4980235;28;20073;-86
2023/03/08 12:33:52;;;;;;;10.55;7.05;;;9.20;79.90;;;;;;4997375;28;20038;-86
2023/03/08 12:36:21;;;;;;;9.90;6.50;;;9.20;79.90;;;;;;4979088;28;20033;-86
2023/03/08 12:38:54;;;;;;;10.10;6.65;;;9.20;80.00;;;;;;4979791;28;20105;-86
2023/03/08 12:41:22;;;;;;;10.52;7.32;;;9.20;80.00;;;;;;4979587;28;20413;-86
2023/03/08 12:44:05;;;;;;;9.70;6.43;;;9.20;80.00;;;;;;4996572;28;20029;-85
2023/03/08 12:46:52;;;;;;;10.82;6.90;;;9.20;79.90;;;;;;4978831;28;20400;-86
2023/03/08 12:49:42;;;;;;;10.57;6.97;;;9.20;80.00;;;;;;4978721;28;20026;-86
2023/03/08 12:52:16;;;;;;;10.85;7.32;;;9.20;80.00;;;;;;4995724;28;20022;-86
2023/03/08 12:54:44;;;;;;;10.02;6.25;;;9.20;80.00;;;;;;5018153;23;20730;-83
2023/03/08 12:57:22;;;;;;;10.23;6.78;;;9.20;79.80;;;;;;4995124;28;20037;-82
2023/03/08 12:59:55;;;;;;;9.80;6.28;;;9.20;79.90;;;;;;4977847;28;20028;-82
2023/03/08 13:02:29;;;;;;;10.00;6.70;;;9.20;80.00;;;;;;4977517;28;20045;-84